Time;durP1;ratioP1;P1;durP2;ratioP2;P2;SDS_P1;SDS_P2;PMS_P1;PMS_P2;Temp;Humidity;BMP_temperature;BMP_pressure;BME280_temperature;BME280_humidity;BME280_pressure;Samples;Min_cycle;Max_cycle;Signal;HPM_P1;HPM_P2
2021/08/13 06:05:32;;;;;;;;;8.33;7.00;;;;;21.23;57.08;101866.31;4960164;28;45545;-85
2021/08/13 06:08:00;;;;;;;;;8.00;6.67;;;;;21.22;56.77;101861.88;4948249;28;45193;-87
2021/08/13 06:14:04;;;;;;;;;12.00;10.75;;;;;21.29;56.96;101875.03;4960661;28;45230;-92
2021/08/13 06:17:32;;;;;;;;;;;;;;;;;;;;;
2021/08/13 06:20:39;;;;;;;;;10.00;10.00;;;;;21.42;57.18;101888.97;4866527;29;71922;-88
2021/08/13 06:26:57;;;;;;;;;8.00;8.00;;;;;21.48;56.71;101898.63;4836137;29;45467;-87
2021/08/13 06:29:37;;;;;;;;;8.33;8.00;;;;;21.49;56.65;101887.88;4846265;29;45448;-88
2021/08/13 06:32:02;;;;;;;;;6.33;6.33;;;;;21.54;56.51;101904.69;4951048;28;45414;-81
2021/08/13 06:34:28;;;;;;;;;11.00;10.00;;;;;21.53;56.36;101902.91;4961033;28;46703;-82
2021/08/13 06:36:55;;;;;;;;;13.00;10.00;;;;;21.57;56.60;101909.03;4960211;28;45441;-80
2021/08/13 06:39:21;;;;;;;;;8.33;8.00;;;;;21.63;56.11;101913.34;4960825;28;45319;-80
2021/08/13 06:41:47;;;;;;;;;8.00;8.00;;;;;21.63;55.98;101924.94;4960618;28;45311;-83
2021/08/13 06:44:14;;;;;;;;;8.00;7.00;;;;;21.61;55.97;101916.06;4959169;28;46009;-80
2021/08/13 06:46:40;;;;;;;;;7.33;5.67;;;;;21.61;55.73;101912.53;4961762;28;45400;-80
2021/08/13 06:49:05;;;;;;;;;8.67;7.67;;;;;21.64;55.76;101915.97;4942197;28;45446;-81
2021/08/13 06:51:30;;;;;;;;;9.33;6.33;;;;;21.61;55.73;101908.03;4961095;28;45445;-80
2021/08/13 06:53:56;;;;;;;;;5.00;5.00;;;;;21.64;55.32;101912.41;4959248;28;46119;-80
2021/08/13 06:56:21;;;;;;;;;7.33;7.00;;;;;21.69;55.28;101915.84;4945285;28;45428;-81
2021/08/13 06:58:49;;;;;;;;;8.00;6.00;;;;;21.66;55.46;101908.78;4945138;28;45441;-81
2021/08/13 07:01:15;;;;;;;;;6.00;6.00;;;;;21.66;55.78;101922.16;4962822;28;45318;-81
2021/08/13 07:03:40;;;;;;;;;6.33;6.33;;;;;21.63;55.57;101916.03;4962243;28;45490;-81
2021/08/13 07:06:05;;;;;;;;;5.67;5.67;;;;;21.61;55.38;101913.38;4961976;28;45258;-81
2021/08/13 07:08:31;;;;;;;;;7.00;6.00;;;;;21.66;55.34;101921.31;4962575;28;45547;-80
2021/08/13 07:10:56;;;;;;;;;6.00;5.33;;;;;21.70;55.45;101925.63;4962204;28;45286;-80
2021/08/13 07:13:22;;;;;;;;;7.00;7.00;;;;;21.76;55.20;101938.84;4945347;28;46541;-79
2021/08/13 07:15:47;;;;;;;;;7.00;7.00;;;;;21.75;55.02;101935.28;4962947;28;45284;-79
2021/08/13 07:18:13;;;;;;;;;7.00;7.00;;;;;21.78;55.01;101929.84;4962747;28;45310;-79
2021/08/13 07:20:38;;;;;;;;;6.67;6.00;;;;;21.84;55.25;101939.50;4942195;28;45386;-79
2021/08/13 07:23:08;;;;;;;;;6.00;6.00;;;;;21.86;55.17;101942.09;4958806;28;45925;-79
2021/08/13 07:25:34;;;;;;;;;6.00;6.00;;;;;21.86;54.65;101934.94;4940934;28;45466;-80
2021/08/13 07:27:59;;;;;;;;;6.67;6.67;;;;;21.92;54.81;101944.59;4945033;28;45328;-79
2021/08/13 07:30:27;;;;;;;;;7.67;7.00;;;;;22.00;54.77;101947.94;4962616;28;45321;-79
2021/08/13 07:33:03;;;;;;;;;6.33;6.33;;;;;22.08;54.70;101953.91;4944669;28;47934;-79
2021/08/13 07:35:29;;;;;;;;;6.67;6.67;;;;;22.15;54.60;101955.44;4962577;28;45282;-79
2021/08/13 07:37:54;;;;;;;;;7.00;7.00;;;;;22.20;54.30;101958.03;4962806;28;45371;-78
2021/08/13 07:40:19;;;;;;;;;5.00;5.00;;;;;22.26;54.32;101965.00;4962443;28;45433;-78
2021/08/13 07:42:45;;;;;;;;;6.33;6.33;;;;;22.30;53.53;101975.59;4944713;28;47276;-78
2021/08/13 07:45:11;;;;;;;;;7.67;6.00;;;;;22.34;53.98;101970.97;4944585;28;45500;-79
2021/08/13 07:47:37;;;;;;;;;5.00;5.00;;;;;22.35;53.75;101960.22;4944664;28;45494;-78
2021/08/13 07:50:03;;;;;;;;;7.67;6.67;;;;;22.46;54.18;101979.50;4962251;28;45413;-78
2021/08/13 07:52:28;;;;;;;;;8.67;6.00;;;;;22.51;53.80;101975.78;4945723;28;45963;-78
2021/08/13 07:54:54;;;;;;;;;7.67;7.00;;;;;22.58;53.46;101978.19;4946437;28;45423;-78
2021/08/13 07:57:20;;;;;;;;;5.00;5.00;;;;;22.68;53.50;101982.31;4945715;28;45374;-79
2021/08/13 07:59:45;;;;;;;;;6.00;5.00;;;;;22.75;53.49;101979.41;4944709;28;45490;-78
2021/08/13 08:02:12;;;;;;;;;6.33;5.00;;;;;22.86;52.67;101993.38;4944110;28;47202;-80
2021/08/13 08:04:52;;;;;;;;;;;;;;;;;;;;;
2021/08/13 08:07:18;;;;;;;;;6.00;6.00;;;;;23.01;51.91;102003.59;4961194;28;67717;-81
2021/08/13 08:09:43;;;;;;;;;5.00;5.00;;;;;23.10;51.71;102005.09;4961792;28;45380;-81
2021/08/13 08:12:12;;;;;;;;;5.67;3.67;;;;;23.17;51.75;102008.41;4961388;28;45561;-81
2021/08/13 08:14:37;;;;;;;;;4.67;3.33;;;;;23.28;51.83;102007.13;4944391;28;45352;-81
2021/08/13 08:17:03;;;;;;;;;5.00;4.00;;;;;23.38;50.72;102017.50;4962415;28;45310;-81
2021/08/13 08:19:29;;;;;;;;;8.67;7.67;;;;;23.39;50.54;102020.16;4961856;28;45299;-80
2021/08/13 08:21:55;;;;;;;;;4.00;3.33;;;;;23.44;49.97;102019.97;4961660;28;46363;-80
2021/08/13 08:24:20;;;;;;;;;4.67;4.00;;;;;23.44;50.22;102014.59;4943800;28;45329;-80
2021/08/13 08:26:46;;;;;;;;;5.00;5.00;;;;;23.43;50.00;102015.53;4944879;28;45293;-80
2021/08/13 08:29:11;;;;;;;;;6.67;6.00;;;;;23.45;49.90;102025.28;4946488;28;45537;-80
2021/08/13 08:31:37;;;;;;;;;4.67;4.67;;;;;23.45;50.54;102021.72;4966175;28;46010;-80
2021/08/13 08:34:02;;;;;;;;;8.33;7.33;;;;;23.47;49.99;102026.13;4944605;28;45495;-80
2021/08/13 08:36:28;;;;;;;;;7.33;6.00;;;;;23.50;50.25;102022.44;4961383;28;45417;-80
2021/08/13 08:38:53;;;;;;;;;5.33;5.33;;;;;23.58;50.04;102017.66;4961298;28;45478;-80
2021/08/13 08:41:19;;;;;;;;;6.33;6.33;;;;;23.64;49.98;102009.34;4961117;28;46120;-80
2021/08/13 08:43:46;;;;;;;;;5.00;5.00;;;;;23.70;49.88;102011.78;4961425;28;45385;-80
2021/08/13 08:46:13;;;;;;;;;4.00;4.00;;;;;23.75;49.56;102009.84;4938272;28;45531;-80
2021/08/13 08:48:39;;;;;;;;;5.33;4.00;;;;;23.87;49.39;102013.88;4958273;28;45442;-78
2021/08/13 08:51:06;;;;;;;;;4.00;4.00;;;;;23.95;49.24;102016.25;4960000;28;45386;-79
2021/08/13 08:53:33;;;;;;;;;5.33;5.00;;;;;23.99;49.10;102009.81;4939972;28;45593;-79
2021/08/13 08:56:00;;;;;;;;;4.67;3.67;;;;;24.08;49.38;102009.44;4940421;28;45486;-79
2021/08/13 08:58:29;;;;;;;;;5.67;5.00;;;;;24.19;48.78;102006.31;4943466;28;45461;-79
2021/08/13 09:00:55;;;;;;;;;4.67;4.33;;;;;24.32;48.99;102009.38;4960448;28;46187;-80
2021/08/13 09:03:23;;;;;;;;;4.67;4.67;;;;;24.36;48.62;101993.06;4942938;28;45534;-81
2021/08/13 09:05:49;;;;;;;;;3.67;3.67;;;;;24.49;48.39;101989.88;4930270;28;45327;-79
2021/08/13 09:08:15;;;;;;;;;3.00;3.00;;;;;24.58;48.56;102005.66;4955493;28;45504;-79
2021/08/13 09:10:41;;;;;;;;;3.00;3.00;;;;;24.60;48.49;101999.25;4947191;28;46244;-79
2021/08/13 09:13:09;;;;;;;;;5.33;4.67;;;;;24.67;48.14;102004.38;4942617;28;45278;-79
2021/08/13 09:15:39;;;;;;;;;4.00;4.00;;;;;24.69;47.26;102010.56;4942627;28;45495;-79
2021/08/13 09:18:19;;;;;;;;;5.00;5.00;;;;;24.78;47.76;102012.84;4959190;28;45381;-79
2021/08/13 09:21:01;;;;;;;;;3.00;3.00;;;;;24.84;47.68;102007.22;4949528;28;45595;-81
2021/08/13 09:23:44;;;;;;;;;6.67;4.67;;;;;24.89;46.91;102012.44;4960344;28;45329;-78
2021/08/13 09:26:13;;;;;;;;;6.00;4.00;;;;;24.99;47.05;102011.06;4942134;28;45370;-78
2021/08/13 09:28:58;;;;;;;;;3.33;3.33;;;;;25.09;46.81;102015.97;4947692;28;45244;-78
2021/08/13 09:31:27;;;;;;;;;3.67;3.67;;;;;25.18;46.86;102011.16;4942474;28;47076;-78
2021/08/13 09:34:04;;;;;;;;;3.00;3.00;;;;;25.23;46.29;102009.13;4960177;28;45464;-77
2021/08/13 09:36:32;;;;;;;;;3.33;3.33;;;;;25.26;46.08;102003.59;4943300;28;45388;-78
2021/08/13 09:39:07;;;;;;;;;3.00;2.00;;;;;25.32;45.90;101994.38;4943164;28;45263;-78
2021/08/13 09:41:54;;;;;;;;;3.00;3.00;;;;;25.41;45.63;101993.94;4948503;28;45271;-78
2021/08/13 09:44:26;;;;;;;;;3.33;3.33;;;;;25.43;45.59;101992.91;4942676;28;45532;-78
2021/08/13 09:47:04;;;;;;;;;4.67;4.67;;;;;25.44;45.55;101993.78;4960071;28;45237;-78
2021/08/13 09:49:31;;;;;;;;;4.00;4.00;;;;;25.46;45.95;101997.31;4960090;28;45286;-77
2021/08/13 09:51:57;;;;;;;;;3.33;3.33;;;;;25.50;45.69;101996.19;4960112;28;45564;-78
2021/08/13 09:54:27;;;;;;;;;4.00;4.00;;;;;25.49;45.90;101997.16;4959974;28;45278;-78
2021/08/13 09:56:53;;;;;;;;;3.00;3.00;;;;;25.49;45.85;101997.16;4960474;28;45184;-78
2021/08/13 09:59:20;;;;;;;;;5.00;5.00;;;;;25.55;45.58;102004.94;4960146;28;45254;-78
2021/08/13 10:01:48;;;;;;;;;5.00;5.00;;;;;25.64;45.28;102009.06;4942090;28;47238;-78
2021/08/13 10:04:15;;;;;;;;;6.33;5.33;;;;;25.71;45.86;101999.72;4934477;28;45909;-78
2021/08/13 10:06:42;;;;;;;;;4.33;4.33;;;;;25.73;45.33;101990.59;4937626;28;45332;-78
2021/08/13 10:09:22;;;;;;;;;5.33;5.00;;;;;25.79;44.87;101994.81;4959741;28;45207;-78
2021/08/13 10:11:58;;;;;;;;;5.67;5.00;;;;;25.86;45.31;101993.63;4942057;28;46957;-78
2021/08/13 10:14:31;;;;;;;;;4.00;4.00;;;;;25.91;44.51;101990.72;4941943;28;46241;-78
2021/08/13 10:17:19;;;;;;;;;5.00;5.00;;;;;25.88;43.93;101985.47;4959288;28;45310;-80
2021/08/13 10:19:47;;;;;;;;;6.00;6.00;;;;;26.00;44.54;101992.97;4936019;28;45795;-79
2021/08/13 10:22:16;;;;;;;;;6.00;6.00;;;;;26.09;44.49;101986.22;4942147;28;46626;-78
2021/08/13 10:24:45;;;;;;;;;8.00;6.00;;;;;26.21;44.00;101980.22;4941779;28;45706;-81
2021/08/13 10:27:16;;;;;;;;;5.00;5.00;;;;;26.28;43.35;101986.22;4944256;28;45260;-80
2021/08/13 10:29:43;;;;;;;;;6.67;6.00;;;;;26.39;44.22;101989.25;4962068;28;45386;-79
2021/08/13 10:32:09;;;;;;;;;7.00;7.00;;;;;26.48;43.15;101991.47;4944800;28;46809;-78
2021/08/13 10:34:35;;;;;;;;;6.33;5.33;;;;;26.60;43.50;101999.00;4944942;28;45183;-80
2021/08/13 10:37:10;;;;;;;;;5.00;4.33;;;;;26.76;43.51;101999.09;4963013;28;45344;-79
2021/08/13 10:39:37;;;;;;;;;6.00;6.00;;;;;26.89;43.16;102002.03;4962646;28;45361;-81
2021/08/13 10:42:05;;;;;;;;;7.00;7.00;;;;;27.02;42.27;102010.34;4944884;28;48338;-76
2021/08/13 10:44:36;;;;;;;;;8.67;8.33;;;;;27.08;42.65;101998.31;4944818;28;45729;-78
2021/08/13 10:47:20;;;;;;;;;5.00;5.00;;;;;27.23;42.71;102003.81;4945573;28;45312;-78
2021/08/13 10:49:48;;;;;;;;;6.67;6.00;;;;;27.32;42.77;102005.19;4933740;28;45693;-77
2021/08/13 10:52:13;;;;;;;;;6.33;6.33;;;;;27.38;42.90;101996.72;4944772;28;47234;-78
2021/08/13 10:54:43;;;;;;;;;7.33;6.00;;;;;27.44;42.62;102003.63;4962594;28;45348;-79
2021/08/13 10:57:11;;;;;;;;;8.00;8.00;;;;;27.53;43.00;101999.53;4945603;28;45386;-78
2021/08/13 10:59:39;;;;;;;;;9.67;8.00;;;;;27.60;42.66;102001.81;4944944;28;45296;-78
2021/08/13 11:02:13;;;;;;;;;8.00;6.67;;;;;27.63;41.54;101998.06;4962260;28;45573;-77
2021/08/13 11:04:40;;;;;;;;;7.00;5.00;;;;;27.70;42.03;102004.91;4958020;28;45472;-78
2021/08/13 11:07:06;;;;;;;;;6.00;6.00;;;;;27.78;41.81;101990.94;4964739;28;45461;-77
2021/08/13 11:09:36;;;;;;;;;6.00;6.00;;;;;27.86;41.33;101991.41;4981738;28;45305;-77
2021/08/13 11:12:10;;;;;;;;;6.00;6.00;;;;;27.99;42.00;101995.16;4981762;28;45572;-78
2021/08/13 11:14:48;;;;;;;;;8.00;7.00;;;;;28.10;41.55;101984.59;4964237;28;45332;-78
2021/08/13 11:17:35;;;;;;;;;7.33;7.00;;;;;28.23;42.09;101987.47;4981222;28;45259;-78
2021/08/13 11:20:04;;;;;;;;;5.67;5.67;;;;;28.31;40.32;101978.91;4963860;28;45483;-77
2021/08/13 11:22:34;;;;;;;;;4.67;4.67;;;;;28.44;41.30;101985.38;4963998;28;46032;-77
2021/08/13 11:25:00;;;;;;;;;8.00;7.33;;;;;28.50;41.17;101982.28;4980798;28;45452;-77
2021/08/13 11:27:26;;;;;;;;;8.67;7.67;;;;;28.57;41.09;101985.47;4981504;28;45475;-77
2021/08/13 11:29:51;;;;;;;;;8.33;6.67;;;;;28.64;41.59;101980.59;4963593;28;46115;-80
2021/08/13 11:32:19;;;;;;;;;7.00;7.00;;;;;28.80;41.33;101984.09;4966147;28;47197;-78
2021/08/13 11:35:09;;;;;;;;;8.33;7.33;;;;;28.90;41.19;101982.59;4981614;28;45277;-78
2021/08/13 11:37:37;;;;;;;;;9.50;9.25;;;;;29.07;40.97;101978.00;4964390;28;45384;-79
2021/08/13 11:40:06;;;;;;;;;9.00;8.25;;;;;29.17;40.05;101974.59;4981605;28;45559;-78
2021/08/13 11:42:32;;;;;;;;;7.00;6.25;;;;;29.22;40.57;101986.03;4981128;28;45308;-79
2021/08/13 11:45:06;;;;;;;;;6.00;6.00;;;;;29.31;40.70;101981.88;4981201;28;45218;-77
2021/08/13 11:47:32;;;;;;;;;10.00;9.00;;;;;29.41;39.65;101979.47;4961887;28;46120;-80
2021/08/13 11:50:05;;;;;;;;;7.00;6.67;;;;;29.46;39.11;101983.63;4965432;28;45873;-77
2021/08/13 11:52:32;;;;;;;;;6.33;6.33;;;;;29.49;39.50;101976.25;4982225;28;45451;-78
2021/08/13 11:55:15;;;;;;;;;8.67;7.67;;;;;29.51;39.75;101971.56;4965307;28;45813;-77
2021/08/13 11:57:40;;;;;;;;;8.00;7.67;;;;;29.61;39.76;101962.75;4957260;28;45449;-79
2021/08/13 12:00:16;;;;;;;;;6.67;6.67;;;;;29.74;39.85;101967.41;4985042;28;45434;-78
2021/08/13 12:02:49;;;;;;;;;7.33;6.33;;;;;29.90;38.22;101965.44;4968867;28;45413;-79
2021/08/13 12:05:27;;;;;;;;;8.67;7.67;;;;;30.00;38.41;101955.72;4951982;28;45466;-79
2021/08/13 12:07:59;;;;;;;;;10.33;7.67;;;;;30.16;38.94;101955.56;4965698;28;45171;-77
2021/08/13 12:10:26;;;;;;;;;7.00;6.33;;;;;30.33;38.63;101962.59;4962998;28;45867;-77
2021/08/13 12:12:51;;;;;;;;;6.67;6.00;;;;;30.39;37.93;101950.44;4963023;28;48422;-74
2021/08/13 12:15:27;;;;;;;;;6.67;6.67;;;;;30.36;37.70;101953.38;4977740;28;45315;-77
2021/08/13 12:17:53;;;;;;;;;8.00;6.67;;;;;30.30;37.88;101950.09;4959627;28;45307;-76
2021/08/13 12:20:19;;;;;;;;;7.67;7.00;;;;;30.36;36.38;101950.66;4963074;28;45345;-76
2021/08/13 12:22:44;;;;;;;;;5.00;5.00;;;;;30.35;36.65;101947.06;4958227;28;47254;-76
2021/08/13 12:25:12;;;;;;;;;6.33;6.33;;;;;30.34;36.65;101945.34;4976959;28;45550;-76
2021/08/13 12:27:38;;;;;;;;;7.67;7.00;;;;;30.36;36.91;101943.38;4969923;28;45312;-76
2021/08/13 12:30:15;;;;;;;;;7.75;6.75;;;;;30.48;37.25;101945.25;4974601;28;45445;-76
2021/08/13 12:32:42;;;;;;;;;5.67;5.33;;;;;30.60;37.11;101948.97;4959503;28;47988;-77
2021/08/13 12:35:10;;;;;;;;;7.67;7.67;;;;;30.66;37.58;101950.38;4957460;28;45401;-75
2021/08/13 12:37:37;;;;;;;;;8.33;8.33;;;;;30.75;37.20;101950.63;4977851;28;45425;-75
2021/08/13 12:40:04;;;;;;;;;6.33;6.33;;;;;30.83;36.97;101958.28;4962573;28;45521;-77
2021/08/13 12:42:30;;;;;;;;;7.00;6.67;;;;;30.86;37.07;101966.22;4956475;28;47292;-76
2021/08/13 12:44:59;;;;;;;;;7.00;7.00;;;;;30.68;36.65;101962.03;4978015;28;45397;-77
2021/08/13 12:47:25;;;;;;;;;10.67;8.00;;;;;30.69;37.79;101964.66;4977561;28;45449;-77
2021/08/13 12:49:51;;;;;;;;;10.33;9.67;;;;;30.76;36.91;101948.75;4976805;28;45432;-77
2021/08/13 12:52:18;;;;;;;;;7.33;7.33;;;;;30.74;36.79;101942.56;4962489;28;48322;-77
2021/08/13 12:54:46;;;;;;;;;7.00;7.00;;;;;30.77;36.74;101940.50;4962209;28;45441;-77
2021/08/13 12:57:13;;;;;;;;;6.67;6.00;;;;;30.87;37.10;101938.03;4960205;28;45449;-77
2021/08/13 12:59:58;;;;;;;;;8.75;8.75;;;;;30.97;36.77;101930.97;4962715;28;45477;-77
2021/08/13 13:02:26;;;;;;;;;7.33;6.00;;;;;31.08;35.52;101941.06;4962500;28;46614;-77
2021/08/13 13:05:04;;;;;;;;;6.67;5.67;;;;;31.14;36.21;101937.94;4962782;28;45499;-77
2021/08/13 13:07:35;;;;;;;;;8.00;8.00;;;;;31.27;35.89;101937.91;4980465;28;45450;-77
2021/08/13 13:10:15;;;;;;;;;6.00;6.00;;;;;31.26;35.17;101928.00;4979819;28;45636;-77
2021/08/13 13:12:41;;;;;;;;;9.00;8.00;;;;;31.36;35.67;101925.50;4980331;28;46471;-77
2021/08/13 13:15:07;;;;;;;;;6.67;5.33;;;;;31.54;35.82;101926.91;4980100;28;45285;-77
2021/08/13 13:17:34;;;;;;;;;7.00;4.67;;;;;31.66;35.09;101933.28;4962672;28;45412;-77
2021/08/13 13:20:13;;;;;;;;;7.00;6.33;;;;;31.71;34.93;101941.97;4978879;28;45475;-77
2021/08/13 13:22:41;;;;;;;;;3.67;3.67;;;;;31.73;34.34;101926.41;4980084;28;45938;-77
2021/08/13 13:25:15;;;;;;;;;5.00;5.00;;;;;31.78;34.90;101934.22;4975120;28;45184;-80
2021/08/13 13:28:02;;;;;;;;;7.00;4.67;;;;;31.73;35.02;101931.84;4980298;28;45452;-78
2021/08/13 13:30:35;;;;;;;;;8.00;6.67;;;;;31.79;35.06;101936.84;4969288;28;45311;-78
2021/08/13 13:33:18;;;;;;;;;7.33;5.33;;;;;31.88;34.69;101942.56;4979871;28;45738;-80
2021/08/13 13:35:44;;;;;;;;;5.33;5.33;;;;;31.95;34.80;101927.56;4980519;28;45478;-80
2021/08/13 13:38:12;;;;;;;;;5.00;5.00;;;;;32.08;34.15;101928.34;4975872;28;45366;-80
2021/08/13 13:40:42;;;;;;;;;7.67;7.00;;;;;32.07;33.91;101930.19;4980978;28;45540;-80
2021/08/13 13:43:09;;;;;;;;;5.67;5.67;;;;;31.91;34.31;101932.31;4944083;28;48062;-79
2021/08/13 13:45:38;;;;;;;;;6.67;6.00;;;;;31.83;34.52;101929.28;4955807;28;45364;-80
2021/08/13 13:48:06;;;;;;;;;5.00;5.00;;;;;31.88;33.42;101929.81;4963367;28;45303;-81
2021/08/13 13:50:32;;;;;;;;;5.00;5.00;;;;;31.88;33.95;101918.06;4963123;28;45449;-80
2021/08/13 13:52:58;;;;;;;;;7.00;6.33;;;;;31.95;34.20;101912.06;4960483;28;47199;-79
2021/08/13 13:55:27;;;;;;;;;5.33;5.33;;;;;32.06;34.23;101911.25;4978713;28;45368;-79
2021/08/13 13:57:53;;;;;;;;;3.67;3.67;;;;;32.23;33.21;101907.22;4979143;28;45429;-80
2021/08/13 14:00:19;;;;;;;;;5.67;4.67;;;;;32.29;32.22;101913.09;4978790;28;45358;-80
2021/08/13 14:02:45;;;;;;;;;5.67;5.67;;;;;32.29;31.79;101909.47;4964791;28;46079;-79
2021/08/13 14:05:12;;;;;;;;;5.33;5.00;;;;;32.26;31.05;101909.69;4964627;28;45588;-79
2021/08/13 14:07:39;;;;;;;;;5.67;4.67;;;;;32.34;32.26;101909.97;4983193;28;45424;-79
2021/08/13 14:10:07;;;;;;;;;6.67;5.00;;;;;32.43;32.26;101909.28;4980270;28;45465;-79
2021/08/13 14:12:36;;;;;;;;;5.67;5.67;;;;;32.45;32.13;101904.59;4970850;28;45601;-80
2021/08/13 14:15:03;;;;;;;;;7.00;6.00;;;;;32.44;32.59;101902.81;4982969;28;45384;-79
2021/08/13 14:17:29;;;;;;;;;5.33;5.33;;;;;32.43;32.62;101914.72;4965244;28;45512;-79
2021/08/13 14:19:54;;;;;;;;;6.33;4.33;;;;;32.24;32.09;101908.97;4982373;28;45542;-78
2021/08/13 14:22:19;;;;;;;;;7.67;6.67;;;;;32.19;32.96;101909.31;4981860;28;46174;-77
2021/08/13 14:24:45;;;;;;;;;7.67;7.67;;;;;32.23;32.55;101908.09;4981257;28;45498;-76
2021/08/13 14:27:10;;;;;;;;;6.33;6.33;;;;;32.21;32.48;101904.63;4990027;28;45424;-79
2021/08/13 14:29:36;;;;;;;;;4.33;4.33;;;;;32.23;32.40;101904.50;4988030;28;45228;-76
2021/08/13 14:32:01;;;;;;;;;3.67;3.33;;;;;32.33;32.40;101910.13;4963728;28;48195;-76
2021/08/13 14:34:27;;;;;;;;;7.33;6.33;;;;;32.35;32.67;101910.88;4982543;28;45373;-76
2021/08/13 14:36:52;;;;;;;;;5.33;5.33;;;;;32.39;32.11;101909.63;4982494;28;45291;-78
2021/08/13 14:39:18;;;;;;;;;6.00;6.00;;;;;32.37;31.40;101906.16;4964010;28;45431;-76
2021/08/13 14:41:43;;;;;;;;;7.00;6.33;;;;;32.44;31.80;101907.41;4991360;28;45243;-76
2021/08/13 14:44:09;;;;;;;;;6.00;6.00;;;;;32.43;31.30;101898.38;4982355;28;45489;-76
2021/08/13 14:46:34;;;;;;;;;7.33;7.33;;;;;32.44;32.22;101908.28;4982598;28;45370;-76
2021/08/13 14:49:00;;;;;;;;;6.00;6.00;;;;;32.19;32.11;101898.41;4981881;28;45310;-76
2021/08/13 14:51:26;;;;;;;;;7.25;6.50;;;;;32.17;32.33;101900.38;4964594;28;46592;-76
2021/08/13 14:53:52;;;;;;;;;7.00;5.00;;;;;32.25;32.90;101897.94;4982109;28;45365;-76
2021/08/13 14:56:17;;;;;;;;;7.33;7.33;;;;;32.38;32.73;101899.72;4989075;28;45333;-76
2021/08/13 14:58:43;;;;;;;;;7.33;7.33;;;;;32.53;32.67;101895.81;4987085;28;45291;-76
2021/08/13 15:01:08;;;;;;;;;7.50;7.50;;;;;32.62;32.08;101884.19;4964754;28;46079;-80
2021/08/13 15:03:34;;;;;;;;;6.00;6.00;;;;;32.73;32.15;101889.66;4964153;28;45762;-76
2021/08/13 15:05:59;;;;;;;;;4.67;4.67;;;;;32.66;32.05;101882.94;4982288;28;45302;-76
2021/08/13 15:08:25;;;;;;;;;8.33;7.33;;;;;32.75;31.94;101889.56;4981726;28;45274;-76
2021/08/13 15:10:50;;;;;;;;;5.67;5.67;;;;;32.82;31.50;101877.13;4981931;28;45474;-76
2021/08/13 15:13:16;;;;;;;;;6.67;5.67;;;;;32.82;31.43;101868.94;4981490;28;45206;-75
2021/08/13 15:15:41;;;;;;;;;6.33;6.33;;;;;32.84;30.04;101866.97;4981824;28;45416;-77
2021/08/13 15:18:07;;;;;;;;;6.33;6.00;;;;;32.84;31.55;101869.69;4964043;28;45319;-75
2021/08/13 15:20:32;;;;;;;;;6.00;6.00;;;;;32.84;31.81;101869.69;4980069;28;47510;-76
2021/08/13 15:22:59;;;;;;;;;7.67;6.00;;;;;32.82;32.10;101863.50;4963732;28;45258;-75
2021/08/13 15:25:24;;;;;;;;;9.75;7.75;;;;;32.86;32.04;101858.69;4963659;28;45402;-75
2021/08/13 15:27:50;;;;;;;;;9.00;8.00;;;;;32.89;32.66;101858.44;4981375;28;45279;-75
2021/08/13 15:30:16;;;;;;;;;7.33;7.33;;;;;33.01;31.85;101851.13;4981653;28;46293;-78
2021/08/13 15:32:41;;;;;;;;;8.00;8.00;;;;;33.02;32.07;101852.88;4981424;28;45429;-75
2021/08/13 15:35:08;;;;;;;;;5.00;4.00;;;;;32.98;30.76;101852.22;4964262;28;45444;-75
2021/08/13 15:37:37;;;;;;;;;6.67;6.67;;;;;33.01;30.57;101859.31;4964749;28;45468;-76
2021/08/13 15:40:06;;;;;;;;;5.33;5.33;;;;;33.03;30.23;101850.00;4964348;28;47717;-77
2021/08/13 15:42:34;;;;;;;;;5.00;5.00;;;;;33.06;30.28;101847.03;4964213;28;45754;-78
2021/08/13 15:45:00;;;;;;;;;6.67;6.67;;;;;33.04;30.58;101839.97;4965099;28;45339;-76
2021/08/13 15:47:43;;;;;;;;;7.00;6.00;;;;;33.13;30.35;101841.94;4965183;28;45530;-76
2021/08/13 15:50:17;;;;;;;;;6.75;6.75;;;;;33.16;29.96;101837.09;4964294;28;47064;-79
2021/08/13 15:52:42;;;;;;;;;6.33;6.00;;;;;33.19;30.42;101833.25;4981001;28;45406;-78
2021/08/13 15:55:08;;;;;;;;;6.00;6.00;;;;;33.21;30.23;101836.72;4981088;28;45436;-77
2021/08/13 15:57:37;;;;;;;;;5.33;5.33;;;;;33.26;30.28;101839.94;4963451;28;45319;-77
2021/08/13 16:00:07;;;;;;;;;11.25;8.75;;;;;33.33;30.38;101846.66;4963376;28;47185;-80
2021/08/13 16:02:50;;;;;;;;;9.33;8.00;;;;;33.24;30.21;101841.06;4944251;28;45545;-78
2021/08/13 16:05:16;;;;;;;;;6.00;6.00;;;;;33.19;30.40;101838.72;4958217;28;45369;-79
2021/08/13 16:07:52;;;;;;;;;;;;;;;;;;;;;
2021/08/13 16:10:17;;;;;;;;;5.33;5.00;;;;;33.09;30.28;101835.00;4958924;28;75247;-80
2021/08/13 16:12:49;;;;;;;;;7.67;7.00;;;;;33.09;30.59;101835.00;4960075;28;45484;-80
2021/08/13 16:15:14;;;;;;;;;7.00;6.00;;;;;33.13;30.96;101839.22;4960515;28;45394;-78
2021/08/13 16:17:40;;;;;;;;;7.33;5.33;;;;;33.14;29.89;101830.03;4942783;28;45737;-79
2021/08/13 16:20:11;;;;;;;;;7.75;7.75;;;;;33.17;30.28;101840.69;4960187;28;45688;-81
2021/08/13 16:22:37;;;;;;;;;6.00;6.00;;;;;33.20;30.87;101832.28;4960257;28;45336;-77
2021/08/13 16:25:06;;;;;;;;;6.67;6.67;;;;;33.28;30.70;101832.50;4958876;28;45207;-76
2021/08/13 16:27:31;;;;;;;;;6.33;6.33;;;;;33.32;30.70;101831.25;4942434;28;45519;-77
2021/08/13 16:29:59;;;;;;;;;6.00;6.00;;;;;33.37;30.57;101836.31;4956995;28;45513;-83
2021/08/13 16:32:25;;;;;;;;;5.33;5.33;;;;;33.38;30.95;101828.00;4958701;28;45396;-80
2021/08/13 16:35:52;;;;;;;;;5.00;5.00;;;;;33.44;30.44;101817.56;4959282;28;45232;-85
2021/08/13 16:38:11;;;;;;;;;6.67;6.33;;;;;33.45;29.78;101814.72;4955633;28;45527;-79
2021/08/13 16:40:40;;;;;;;;;6.25;6.25;;;;;33.36;30.19;101808.16;4959027;28;46468;-80
2021/08/13 16:43:06;;;;;;;;;6.33;6.33;;;;;33.23;30.60;101795.63;4941095;28;45336;-79
2021/08/13 16:45:31;;;;;;;;;6.50;6.50;;;;;33.21;30.31;101800.38;4944072;28;45515;-79
2021/08/13 16:47:56;;;;;;;;;5.33;5.33;;;;;33.10;30.52;101806.72;4940539;28;45652;-79
2021/08/13 16:51:15;;;;;;;;;;;;;;;;;;;;;
2021/08/13 16:53:48;;;;;;;;;5.00;5.00;;;;;33.02;30.75;101809.22;4918435;28;73058;-81
2021/08/13 16:56:29;;;;;;;;;;;;;;;;;;;;;
2021/08/13 16:58:57;;;;;;;;;6.33;6.33;;;;;32.90;30.88;101797.41;4957261;28;72667;-79
2021/08/13 17:01:26;;;;;;;;;6.25;6.25;;;;;32.93;30.86;101800.78;4953935;28;46251;-80
2021/08/13 17:03:51;;;;;;;;;5.00;5.00;;;;;33.02;30.79;101803.75;4899202;28;1196236;-78
2021/08/13 17:06:20;;;;;;;;;5.67;5.67;;;;;33.06;30.80;101800.63;4956292;28;45344;-79
2021/08/13 17:08:47;;;;;;;;;7.00;7.00;;;;;33.10;30.41;101799.41;4943600;28;45463;-79
2021/08/13 17:11:13;;;;;;;;;5.00;5.00;;;;;33.13;30.64;101798.28;4941763;28;47971;-78
2021/08/13 17:13:38;;;;;;;;;6.50;6.50;;;;;33.06;30.80;101797.03;4958257;28;45293;-80
2021/08/13 17:16:04;;;;;;;;;6.75;6.75;;;;;32.98;30.31;101799.50;4942452;28;45400;-79
2021/08/13 17:18:30;;;;;;;;;6.00;6.00;;;;;32.93;30.98;101795.31;4959344;28;45456;-76
2021/08/13 17:20:56;;;;;;;;;5.33;5.33;;;;;32.96;31.04;101794.19;4938390;28;48182;-80
2021/08/13 17:23:22;;;;;;;;;7.00;7.00;;;;;32.94;30.98;101788.84;4958947;28;45498;-78
2021/08/13 17:25:48;;;;;;;;;9.33;8.00;;;;;32.83;30.89;101788.00;4941786;28;45424;-79
2021/08/13 17:28:20;;;;;;;;;7.33;7.33;;;;;32.75;31.23;101793.22;4959655;28;45642;-84
2021/08/13 17:31:03;;;;;;;;;6.33;6.33;;;;;32.61;31.18;101783.41;4961470;28;45611;-80
2021/08/13 17:33:39;;;;;;;;;;;;;;;;;;;;;
2021/08/13 17:36:05;;;;;;;;;6.67;5.67;;;;;32.55;31.24;101784.75;4963816;28;69500;-79
2021/08/13 17:38:39;;;;;;;;;6.50;6.50;;;;;32.57;30.87;101782.78;4959354;28;45525;-79
2021/08/13 17:41:11;;;;;;;;;8.67;8.67;;;;;32.56;31.24;101783.78;4968171;28;45427;-82
2021/08/13 17:43:50;;;;;;;;;8.75;6.00;;;;;32.53;31.47;101788.59;4974114;28;45269;-84
2021/08/13 17:47:10;;;;;;;;;7.33;7.33;;;;;32.60;31.46;101784.41;4958999;28;45536;-79
2021/08/13 17:49:59;;;;;;;;;5.00;5.00;;;;;33.23;31.11;101790.19;4912331;28;45530;-80
2021/08/13 17:52:24;;;;;;;;;4.67;3.67;;;;;34.21;30.08;101781.84;4916822;28;47775;-80
2021/08/13 17:54:49;;;;;;;;;6.00;5.00;;;;;35.06;29.54;101778.78;4909102;28;46596;-78